sensor_id;sensor_type;location;lat;lon;timestamp;P1;durP1;ratioP1;P2;durP2;ratioP2
13797;SDS011;6970;51.340;3.240;2022-08-19T00:03:33;23.03;;;17.70;;
13797;SDS011;6970;51.340;3.240;2022-08-19T00:08:32;19.50;;;16.63;;
13797;SDS011;6970;51.340;3.240;2022-08-19T00:13:31;22.93;;;17.33;;
13797;SDS011;6970;51.340;3.240;2022-08-19T00:21:16;20.70;;;18.40;;
13797;SDS011;6970;51.340;3.240;2022-08-19T00:26:17;21.77;;;18.07;;
13797;SDS011;6970;51.340;3.240;2022-08-19T00:28:45;20.63;;;18.33;;
13797;SDS011;6970;51.340;3.240;2022-08-19T00:33:46;21.07;;;16.80;;
13797;SDS011;6970;51.340;3.240;2022-08-19T00:36:16;19.90;;;16.63;;
13797;SDS011;6970;51.340;3.240;2022-08-19T00:38:47;22.37;;;17.43;;
13797;SDS011;6970;51.340;3.240;2022-08-19T00:41:18;20.87;;;17.80;;
13797;SDS011;6970;51.340;3.240;2022-08-19T00:44:05;25.37;;;18.10;;
13797;SDS011;6970;51.340;3.240;2022-08-19T00:46:42;21.00;;;18.27;;
13797;SDS011;6970;51.340;3.240;2022-08-19T00:50:03;26.00;;;19.00;;
13797;SDS011;6970;51.340;3.240;2022-08-19T00:57:32;24.73;;;18.70;;
13797;SDS011;6970;51.340;3.240;2022-08-19T01:00:04;20.53;;;18.00;;
13797;SDS011;6970;51.340;3.240;2022-08-19T01:02:38;22.10;;;17.50;;
13797;SDS011;6970;51.340;3.240;2022-08-19T01:05:16;23.10;;;15.90;;
13797;SDS011;6970;51.340;3.240;2022-08-19T01:07:50;22.40;;;15.23;;
13797;SDS011;6970;51.340;3.240;2022-08-19T01:13:04;23.27;;;16.20;;
13797;SDS011;6970;51.340;3.240;2022-08-19T01:15:40;21.07;;;16.37;;
13797;SDS011;6970;51.340;3.240;2022-08-19T01:18:15;22.50;;;15.63;;
13797;SDS011;6970;51.340;3.240;2022-08-19T01:23:17;20.63;;;14.33;;
13797;SDS011;6970;51.340;3.240;2022-08-19T01:25:48;26.17;;;15.43;;
13797;SDS011;6970;51.340;3.240;2022-08-19T01:31:12;20.17;;;14.43;;
13797;SDS011;6970;51.340;3.240;2022-08-19T01:39:10;19.73;;;13.73;;
13797;SDS011;6970;51.340;3.240;2022-08-19T01:41:39;19.17;;;14.00;;
13797;SDS011;6970;51.340;3.240;2022-08-19T01:44:07;21.97;;;15.13;;
13797;SDS011;6970;51.340;3.240;2022-08-19T01:46:44;18.97;;;14.53;;
13797;SDS011;6970;51.340;3.240;2022-08-19T01:49:14;19.87;;;14.13;;
13797;SDS011;6970;51.340;3.240;2022-08-19T01:51:42;20.07;;;13.03;;
13797;SDS011;6970;51.340;3.240;2022-08-19T01:54:10;17.00;;;13.33;;
13797;SDS011;6970;51.340;3.240;2022-08-19T01:56:51;17.23;;;13.80;;
13797;SDS011;6970;51.340;3.240;2022-08-19T01:59:21;21.47;;;14.67;;
13797;SDS011;6970;51.340;3.240;2022-08-19T02:01:53;16.77;;;12.53;;
13797;SDS011;6970;51.340;3.240;2022-08-19T02:06:57;21.20;;;13.17;;
13797;SDS011;6970;51.340;3.240;2022-08-19T02:17:46;21.20;;;13.57;;
13797;SDS011;6970;51.340;3.240;2022-08-19T02:20:13;22.27;;;13.40;;
13797;SDS011;6970;51.340;3.240;2022-08-19T02:22:41;20.37;;;13.57;;
13797;SDS011;6970;51.340;3.240;2022-08-19T02:25:10;15.37;;;12.10;;
13797;SDS011;6970;51.340;3.240;2022-08-19T02:27:38;17.30;;;13.20;;
13797;SDS011;6970;51.340;3.240;2022-08-19T02:32:39;16.33;;;12.77;;
13797;SDS011;6970;51.340;3.240;2022-08-19T02:35:16;19.80;;;13.30;;
13797;SDS011;6970;51.340;3.240;2022-08-19T02:37:47;20.17;;;13.80;;
13797;SDS011;6970;51.340;3.240;2022-08-19T02:43:07;19.90;;;13.90;;
13797;SDS011;6970;51.340;3.240;2022-08-19T02:48:07;16.77;;;12.90;;
13797;SDS011;6970;51.340;3.240;2022-08-19T02:55:57;18.87;;;13.67;;
13797;SDS011;6970;51.340;3.240;2022-08-19T03:00:56;20.13;;;13.50;;
13797;SDS011;6970;51.340;3.240;2022-08-19T03:03:26;19.53;;;13.23;;
13797;SDS011;6970;51.340;3.240;2022-08-19T03:06:11;24.53;;;13.87;;
13797;SDS011;6970;51.340;3.240;2022-08-19T03:08:43;18.90;;;12.90;;
13797;SDS011;6970;51.340;3.240;2022-08-19T03:11:16;19.70;;;12.80;;
13797;SDS011;6970;51.340;3.240;2022-08-19T03:13:51;21.17;;;12.90;;
13797;SDS011;6970;51.340;3.240;2022-08-19T03:18:55;23.77;;;13.07;;
13797;SDS011;6970;51.340;3.240;2022-08-19T03:21:30;17.87;;;11.50;;
13797;SDS011;6970;51.340;3.240;2022-08-19T03:24:03;18.37;;;13.63;;
13797;SDS011;6970;51.340;3.240;2022-08-19T03:29:13;17.67;;;12.23;;
13797;SDS011;6970;51.340;3.240;2022-08-19T03:31:54;22.53;;;12.13;;
13797;SDS011;6970;51.340;3.240;2022-08-19T03:34:24;17.03;;;11.60;;
13797;SDS011;6970;51.340;3.240;2022-08-19T03:39:27;15.70;;;10.90;;
13797;SDS011;6970;51.340;3.240;2022-08-19T03:41:55;15.60;;;12.20;;
13797;SDS011;6970;51.340;3.240;2022-08-19T03:47:18;15.07;;;10.57;;
13797;SDS011;6970;51.340;3.240;2022-08-19T03:49:46;20.10;;;11.53;;
13797;SDS011;6970;51.340;3.240;2022-08-19T03:52:15;15.67;;;11.13;;
13797;SDS011;6970;51.340;3.240;2022-08-19T03:54:50;16.23;;;10.27;;
13797;SDS011;6970;51.340;3.240;2022-08-19T03:59:57;13.40;;;9.93;;
13797;SDS011;6970;51.340;3.240;2022-08-19T04:02:41;12.23;;;10.13;;
13797;SDS011;6970;51.340;3.240;2022-08-19T04:05:26;16.57;;;9.87;;
13797;SDS011;6970;51.340;3.240;2022-08-19T04:07:54;18.40;;;10.63;;
13797;SDS011;6970;51.340;3.240;2022-08-19T04:10:25;16.20;;;9.83;;
13797;SDS011;6970;51.340;3.240;2022-08-19T04:12:55;16.33;;;10.13;;
13797;SDS011;6970;51.340;3.240;2022-08-19T04:15:24;17.23;;;9.77;;
13797;SDS011;6970;51.340;3.240;2022-08-19T04:22:51;15.93;;;10.17;;
13797;SDS011;6970;51.340;3.240;2022-08-19T04:25:21;11.87;;;9.43;;
13797;SDS011;6970;51.340;3.240;2022-08-19T04:27:48;12.47;;;9.00;;
13797;SDS011;6970;51.340;3.240;2022-08-19T04:32:51;16.23;;;10.50;;
13797;SDS011;6970;51.340;3.240;2022-08-19T04:35:22;16.93;;;10.20;;
13797;SDS011;6970;51.340;3.240;2022-08-19T04:37:56;16.67;;;9.87;;
13797;SDS011;6970;51.340;3.240;2022-08-19T04:43:11;12.97;;;9.77;;
13797;SDS011;6970;51.340;3.240;2022-08-19T04:48:22;15.13;;;12.00;;
13797;SDS011;6970;51.340;3.240;2022-08-19T04:53:25;13.00;;;10.40;;
13797;SDS011;6970;51.340;3.240;2022-08-19T05:01:18;18.50;;;12.73;;
13797;SDS011;6970;51.340;3.240;2022-08-19T05:03:50;13.20;;;11.60;;
13797;SDS011;6970;51.340;3.240;2022-08-19T05:08:49;14.10;;;11.03;;
13797;SDS011;6970;51.340;3.240;2022-08-19T05:11:20;15.87;;;11.27;;
13797;SDS011;6970;51.340;3.240;2022-08-19T05:13:52;12.07;;;10.17;;
13797;SDS011;6970;51.340;3.240;2022-08-19T05:16:22;13.13;;;11.20;;
13797;SDS011;6970;51.340;3.240;2022-08-19T05:21:43;15.43;;;12.07;;
13797;SDS011;6970;51.340;3.240;2022-08-19T05:29:32;14.87;;;11.53;;
13797;SDS011;6970;51.340;3.240;2022-08-19T05:37:12;10.90;;;9.77;;
13797;SDS011;6970;51.340;3.240;2022-08-19T05:39:42;14.23;;;10.23;;
13797;SDS011;6970;51.340;3.240;2022-08-19T05:42:15;11.57;;;10.37;;
13797;SDS011;6970;51.340;3.240;2022-08-19T05:44:45;15.57;;;9.27;;
13797;SDS011;6970;51.340;3.240;2022-08-19T05:47:13;12.87;;;8.97;;
13797;SDS011;6970;51.340;3.240;2022-08-19T05:49:41;11.83;;;8.70;;
13797;SDS011;6970;51.340;3.240;2022-08-19T05:55:03;11.90;;;8.33;;
13797;SDS011;6970;51.340;3.240;2022-08-19T06:02:39;9.10;;;8.17;;
13797;SDS011;6970;51.340;3.240;2022-08-19T06:08:20;9.10;;;8.20;;
13797;SDS011;6970;51.340;3.240;2022-08-19T06:14:06;11.13;;;8.43;;
13797;SDS011;6970;51.340;3.240;2022-08-19T06:16:42;10.60;;;8.43;;
13797;SDS011;6970;51.340;3.240;2022-08-19T06:19:16;11.73;;;8.83;;
13797;SDS011;6970;51.340;3.240;2022-08-19T06:24:20;10.90;;;8.30;;
13797;SDS011;6970;51.340;3.240;2022-08-19T06:26:52;10.40;;;9.40;;
13797;SDS011;6970;51.340;3.240;2022-08-19T06:29:27;11.33;;;9.60;;
13797;SDS011;6970;51.340;3.240;2022-08-19T06:31:56;12.23;;;10.97;;
13797;SDS011;6970;51.340;3.240;2022-08-19T06:34:25;12.57;;;10.47;;
13797;SDS011;6970;51.340;3.240;2022-08-19T06:39:28;12.33;;;11.07;;
13797;SDS011;6970;51.340;3.240;2022-08-19T06:42:01;13.13;;;11.33;;
13797;SDS011;6970;51.340;3.240;2022-08-19T06:44:38;11.77;;;10.07;;
13797;SDS011;6970;51.340;3.240;2022-08-19T06:47:10;15.97;;;10.90;;
13797;SDS011;6970;51.340;3.240;2022-08-19T06:49:52;13.27;;;11.27;;
13797;SDS011;6970;51.340;3.240;2022-08-19T06:52:27;15.77;;;12.87;;
13797;SDS011;6970;51.340;3.240;2022-08-19T06:54:57;16.67;;;12.03;;
13797;SDS011;6970;51.340;3.240;2022-08-19T07:00:00;11.43;;;10.33;;
13797;SDS011;6970;51.340;3.240;2022-08-19T07:02:29;14.03;;;12.10;;
13797;SDS011;6970;51.340;3.240;2022-08-19T07:04:56;12.77;;;11.23;;
13797;SDS011;6970;51.340;3.240;2022-08-19T07:10:05;13.60;;;12.13;;
13797;SDS011;6970;51.340;3.240;2022-08-19T07:17:40;13.73;;;12.07;;
13797;SDS011;6970;51.340;3.240;2022-08-19T07:20:09;15.17;;;12.57;;
13797;SDS011;6970;51.340;3.240;2022-08-19T07:22:39;12.33;;;11.23;;
13797;SDS011;6970;51.340;3.240;2022-08-19T07:25:12;12.67;;;11.37;;
13797;SDS011;6970;51.340;3.240;2022-08-19T07:30:14;12.73;;;11.43;;
13797;SDS011;6970;51.340;3.240;2022-08-19T07:32:43;12.27;;;11.03;;
13797;SDS011;6970;51.340;3.240;2022-08-19T07:35:10;12.93;;;11.97;;
13797;SDS011;6970;51.340;3.240;2022-08-19T07:37:37;13.90;;;12.37;;
13797;SDS011;6970;51.340;3.240;2022-08-19T07:40:06;13.57;;;12.33;;
13797;SDS011;6970;51.340;3.240;2022-08-19T07:42:35;13.70;;;11.77;;
13797;SDS011;6970;51.340;3.240;2022-08-19T07:47:33;12.83;;;11.73;;
13797;SDS011;6970;51.340;3.240;2022-08-19T07:50:16;14.83;;;10.73;;
13797;SDS011;6970;51.340;3.240;2022-08-19T07:53:01;10.83;;;9.80;;
13797;SDS011;6970;51.340;3.240;2022-08-19T07:55:29;11.87;;;10.70;;
13797;SDS011;6970;51.340;3.240;2022-08-19T07:58:10;11.27;;;10.27;;
13797;SDS011;6970;51.340;3.240;2022-08-19T08:03:11;11.80;;;10.23;;
13797;SDS011;6970;51.340;3.240;2022-08-19T08:08:28;11.27;;;10.27;;
13797;SDS011;6970;51.340;3.240;2022-08-19T08:11:13;10.60;;;9.67;;
13797;SDS011;6970;51.340;3.240;2022-08-19T08:16:34;10.30;;;9.40;;
13797;SDS011;6970;51.340;3.240;2022-08-19T08:19:27;10.00;;;9.10;;
13797;SDS011;6970;51.340;3.240;2022-08-19T08:21:57;10.50;;;9.40;;
13797;SDS011;6970;51.340;3.240;2022-08-19T08:24:28;9.30;;;8.50;;
13797;SDS011;6970;51.340;3.240;2022-08-19T08:35:01;11.23;;;10.23;;
13797;SDS011;6970;51.340;3.240;2022-08-19T08:37:33;11.27;;;10.13;;
13797;SDS011;6970;51.340;3.240;2022-08-19T08:40:07;10.00;;;9.10;;
13797;SDS011;6970;51.340;3.240;2022-08-19T08:43:48;9.83;;;9.03;;
13797;SDS011;6970;51.340;3.240;2022-08-19T08:46:19;9.73;;;8.83;;
13797;SDS011;6970;51.340;3.240;2022-08-19T08:49:20;10.20;;;9.27;;
13797;SDS011;6970;51.340;3.240;2022-08-19T08:52:11;11.03;;;8.60;;
13797;SDS011;6970;51.340;3.240;2022-08-19T09:05:16;8.50;;;7.70;;
13797;SDS011;6970;51.340;3.240;2022-08-19T09:10:55;6.53;;;5.10;;
13797;SDS011;6970;51.340;3.240;2022-08-19T09:13:31;4.60;;;4.20;;
13797;SDS011;6970;51.340;3.240;2022-08-19T09:17:02;5.50;;;3.27;;
13797;SDS011;6970;51.340;3.240;2022-08-19T09:19:33;4.47;;;2.93;;
13797;SDS011;6970;51.340;3.240;2022-08-19T09:22:24;5.40;;;2.87;;
13797;SDS011;6970;51.340;3.240;2022-08-19T09:27:25;3.90;;;1.63;;
13797;SDS011;6970;51.340;3.240;2022-08-19T09:30:14;3.70;;;2.20;;
13797;SDS011;6970;51.340;3.240;2022-08-19T09:32:47;1.87;;;1.77;;
13797;SDS011;6970;51.340;3.240;2022-08-19T09:35:23;4.23;;;2.10;;
13797;SDS011;6970;51.340;3.240;2022-08-19T09:43:01;4.83;;;2.27;;
13797;SDS011;6970;51.340;3.240;2022-08-19T09:45:44;4.77;;;2.70;;
13797;SDS011;6970;51.340;3.240;2022-08-19T09:48:14;5.60;;;2.90;;
13797;SDS011;6970;51.340;3.240;2022-08-19T09:50:48;4.13;;;2.87;;
13797;SDS011;6970;51.340;3.240;2022-08-19T09:53:17;2.73;;;2.33;;
13797;SDS011;6970;51.340;3.240;2022-08-19T09:55:45;4.80;;;2.53;;
13797;SDS011;6970;51.340;3.240;2022-08-19T09:58:12;4.00;;;2.53;;
13797;SDS011;6970;51.340;3.240;2022-08-19T10:00:39;4.53;;;2.43;;
13797;SDS011;6970;51.340;3.240;2022-08-19T10:03:08;2.93;;;2.40;;
13797;SDS011;6970;51.340;3.240;2022-08-19T10:05:36;7.27;;;2.10;;
13797;SDS011;6970;51.340;3.240;2022-08-19T10:08:17;14.03;;;3.20;;
13797;SDS011;6970;51.340;3.240;2022-08-19T10:10:46;6.23;;;2.20;;
13797;SDS011;6970;51.340;3.240;2022-08-19T10:13:17;9.70;;;2.33;;
13797;SDS011;6970;51.340;3.240;2022-08-19T10:18:24;10.13;;;2.50;;
13797;SDS011;6970;51.340;3.240;2022-08-19T10:23:38;5.30;;;4.80;;
13797;SDS011;6970;51.340;3.240;2022-08-19T10:26:11;7.60;;;7.03;;
13797;SDS011;6970;51.340;3.240;2022-08-19T10:28:54;7.33;;;6.73;;
13797;SDS011;6970;51.340;3.240;2022-08-19T10:31:24;8.60;;;7.57;;
13797;SDS011;6970;51.340;3.240;2022-08-19T10:34:12;8.83;;;8.13;;
13797;SDS011;6970;51.340;3.240;2022-08-19T10:36:56;11.07;;;9.97;;
13797;SDS011;6970;51.340;3.240;2022-08-19T10:39:28;10.83;;;10.03;;
13797;SDS011;6970;51.340;3.240;2022-08-19T10:42:07;11.30;;;10.30;;
13797;SDS011;6970;51.340;3.240;2022-08-19T10:44:37;9.97;;;9.17;;
13797;SDS011;6970;51.340;3.240;2022-08-19T10:52:42;9.47;;;8.53;;
13797;SDS011;6970;51.340;3.240;2022-08-19T10:55:16;7.77;;;7.07;;
13797;SDS011;6970;51.340;3.240;2022-08-19T10:58:03;8.07;;;6.50;;
13797;SDS011;6970;51.340;3.240;2022-08-19T11:00:34;7.57;;;6.37;;
13797;SDS011;6970;51.340;3.240;2022-08-19T11:03:08;7.53;;;6.83;;
13797;SDS011;6970;51.340;3.240;2022-08-19T11:05:36;8.97;;;6.30;;
13797;SDS011;6970;51.340;3.240;2022-08-19T11:08:06;9.70;;;6.87;;
13797;SDS011;6970;51.340;3.240;2022-08-19T11:10:49;5.80;;;5.40;;
13797;SDS011;6970;51.340;3.240;2022-08-19T11:13:32;8.63;;;7.87;;
13797;SDS011;6970;51.340;3.240;2022-08-19T11:16:07;8.50;;;7.83;;
13797;SDS011;6970;51.340;3.240;2022-08-19T11:21:13;8.27;;;7.63;;
13797;SDS011;6970;51.340;3.240;2022-08-19T11:26:23;6.53;;;5.67;;
13797;SDS011;6970;51.340;3.240;2022-08-19T11:33:58;6.27;;;5.57;;
13797;SDS011;6970;51.340;3.240;2022-08-19T11:36:29;5.33;;;4.93;;
13797;SDS011;6970;51.340;3.240;2022-08-19T11:41:29;7.93;;;6.97;;
13797;SDS011;6970;51.340;3.240;2022-08-19T11:43:56;6.70;;;6.20;;
13797;SDS011;6970;51.340;3.240;2022-08-19T11:46:24;6.90;;;6.23;;
13797;SDS011;6970;51.340;3.240;2022-08-19T11:49:04;7.50;;;6.27;;
13797;SDS011;6970;51.340;3.240;2022-08-19T11:51:42;7.53;;;6.70;;
13797;SDS011;6970;51.340;3.240;2022-08-19T11:54:13;7.90;;;6.90;;
13797;SDS011;6970;51.340;3.240;2022-08-19T11:59:15;6.27;;;5.67;;
13797;SDS011;6970;51.340;3.240;2022-08-19T12:01:44;6.90;;;5.77;;
13797;SDS011;6970;51.340;3.240;2022-08-19T12:04:12;6.53;;;4.20;;
13797;SDS011;6970;51.340;3.240;2022-08-19T12:06:40;6.57;;;4.13;;
13797;SDS011;6970;51.340;3.240;2022-08-19T12:09:08;5.23;;;3.60;;
13797;SDS011;6970;51.340;3.240;2022-08-19T12:11:37;6.63;;;3.80;;
13797;SDS011;6970;51.340;3.240;2022-08-19T12:21:48;57.00;;;10.47;;
13797;SDS011;6970;51.340;3.240;2022-08-19T12:26:52;25.20;;;5.73;;
13797;SDS011;6970;51.340;3.240;2022-08-19T12:31:58;9.17;;;3.40;;
13797;SDS011;6970;51.340;3.240;2022-08-19T12:39:45;7.20;;;3.57;;
13797;SDS011;6970;51.340;3.240;2022-08-19T12:42:13;10.53;;;3.20;;
13797;SDS011;6970;51.340;3.240;2022-08-19T12:44:41;13.77;;;4.27;;
13797;SDS011;6970;51.340;3.240;2022-08-19T12:47:10;9.47;;;3.13;;
13797;SDS011;6970;51.340;3.240;2022-08-19T12:49:40;8.37;;;3.13;;
13797;SDS011;6970;51.340;3.240;2022-08-19T12:52:21;5.60;;;2.83;;
13797;SDS011;6970;51.340;3.240;2022-08-19T12:54:53;5.67;;;2.97;;
13797;SDS011;6970;51.340;3.240;2022-08-19T13:00:09;4.23;;;2.47;;
13797;SDS011;6970;51.340;3.240;2022-08-19T13:02:41;168.00;;;25.77;;
13797;SDS011;6970;51.340;3.240;2022-08-19T13:07:45;82.10;;;13.17;;
13797;SDS011;6970;51.340;3.240;2022-08-19T13:10:13;17.63;;;5.47;;
13797;SDS011;6970;51.340;3.240;2022-08-19T13:12:45;9.83;;;2.87;;
13797;SDS011;6970;51.340;3.240;2022-08-19T13:17:52;2.93;;;2.03;;
13797;SDS011;6970;51.340;3.240;2022-08-19T13:20:23;3.93;;;2.30;;
13797;SDS011;6970;51.340;3.240;2022-08-19T13:22:51;3.05;;;1.90;;
13797;SDS011;6970;51.340;3.240;2022-08-19T13:25:21;2.63;;;1.95;;
13797;SDS011;6970;51.340;3.240;2022-08-19T13:30:22;4.75;;;2.10;;
13797;SDS011;6970;51.340;3.240;2022-08-19T13:33:11;8.55;;;2.72;;
13797;SDS011;6970;51.340;3.240;2022-08-19T13:35:51;9.73;;;3.20;;
13797;SDS011;6970;51.340;3.240;2022-08-19T13:38:27;9.48;;;3.45;;
13797;SDS011;6970;51.340;3.240;2022-08-19T13:40:57;6.55;;;3.00;;
13797;SDS011;6970;51.340;3.240;2022-08-19T13:46:11;4.15;;;2.50;;
13797;SDS011;6970;51.340;3.240;2022-08-19T13:48:41;5.95;;;2.47;;
13797;SDS011;6970;51.340;3.240;2022-08-19T13:51:09;5.20;;;2.83;;
13797;SDS011;6970;51.340;3.240;2022-08-19T13:53:55;7.80;;;2.90;;
13797;SDS011;6970;51.340;3.240;2022-08-19T13:56:25;5.40;;;2.53;;
13797;SDS011;6970;51.340;3.240;2022-08-19T13:58:52;7.93;;;3.03;;
13797;SDS011;6970;51.340;3.240;2022-08-19T14:03:57;5.72;;;2.38;;
13797;SDS011;6970;51.340;3.240;2022-08-19T14:06:27;4.95;;;2.30;;
13797;SDS011;6970;51.340;3.240;2022-08-19T14:11:26;6.97;;;2.55;;
13797;SDS011;6970;51.340;3.240;2022-08-19T14:18:56;3.42;;;1.80;;
13797;SDS011;6970;51.340;3.240;2022-08-19T14:23:53;4.85;;;2.10;;
13797;SDS011;6970;51.340;3.240;2022-08-19T14:28:54;4.70;;;2.53;;
13797;SDS011;6970;51.340;3.240;2022-08-19T14:31:24;4.97;;;2.63;;
13797;SDS011;6970;51.340;3.240;2022-08-19T14:36:29;3.17;;;2.22;;
13797;SDS011;6970;51.340;3.240;2022-08-19T14:41:51;3.13;;;2.17;;
13797;SDS011;6970;51.340;3.240;2022-08-19T14:44:22;3.83;;;2.10;;
13797;SDS011;6970;51.340;3.240;2022-08-19T14:46:52;3.95;;;2.22;;
13797;SDS011;6970;51.340;3.240;2022-08-19T14:49:25;4.35;;;2.10;;
13797;SDS011;6970;51.340;3.240;2022-08-19T14:52:00;5.75;;;3.05;;
13797;SDS011;6970;51.340;3.240;2022-08-19T14:54:30;6.07;;;2.53;;
13797;SDS011;6970;51.340;3.240;2022-08-19T14:56:57;7.07;;;3.40;;
13797;SDS011;6970;51.340;3.240;2022-08-19T15:01:55;5.00;;;3.03;;
13797;SDS011;6970;51.340;3.240;2022-08-19T15:07:01;6.88;;;3.25;;
13797;SDS011;6970;51.340;3.240;2022-08-19T15:09:34;7.70;;;2.47;;
13797;SDS011;6970;51.340;3.240;2022-08-19T15:17:04;4.10;;;2.22;;
13797;SDS011;6970;51.340;3.240;2022-08-19T15:22:05;4.60;;;2.28;;
13797;SDS011;6970;51.340;3.240;2022-08-19T15:24:36;4.82;;;2.05;;
13797;SDS011;6970;51.340;3.240;2022-08-19T15:27:16;4.53;;;1.80;;
13797;SDS011;6970;51.340;3.240;2022-08-19T15:29:49;2.95;;;2.33;;
13797;SDS011;6970;51.340;3.240;2022-08-19T15:32:29;6.10;;;2.33;;
13797;SDS011;6970;51.340;3.240;2022-08-19T15:34:56;2.92;;;1.95;;
13797;SDS011;6970;51.340;3.240;2022-08-19T15:40:03;4.35;;;1.90;;
13797;SDS011;6970;51.340;3.240;2022-08-19T15:42:34;5.03;;;2.20;;
13797;SDS011;6970;51.340;3.240;2022-08-19T15:45:05;8.73;;;2.27;;
13797;SDS011;6970;51.340;3.240;2022-08-19T15:47:36;4.63;;;2.20;;
13797;SDS011;6970;51.340;3.240;2022-08-19T15:50:18;3.83;;;2.13;;
13797;SDS011;6970;51.340;3.240;2022-08-19T15:53:02;5.17;;;1.87;;
13797;SDS011;6970;51.340;3.240;2022-08-19T15:55:36;4.30;;;2.00;;
13797;SDS011;6970;51.340;3.240;2022-08-19T16:03:52;4.80;;;1.80;;
13797;SDS011;6970;51.340;3.240;2022-08-19T16:06:48;5.60;;;2.07;;
13797;SDS011;6970;51.340;3.240;2022-08-19T16:09:25;8.40;;;1.77;;
13797;SDS011;6970;51.340;3.240;2022-08-19T16:11:56;4.63;;;2.10;;
13797;SDS011;6970;51.340;3.240;2022-08-19T16:14:29;5.30;;;2.03;;
13797;SDS011;6970;51.340;3.240;2022-08-19T16:16:58;3.83;;;2.00;;
13797;SDS011;6970;51.340;3.240;2022-08-19T16:21:55;2.67;;;1.80;;
13797;SDS011;6970;51.340;3.240;2022-08-19T16:24:28;3.27;;;1.73;;
13797;SDS011;6970;51.340;3.240;2022-08-19T16:29:29;4.33;;;1.70;;
13797;SDS011;6970;51.340;3.240;2022-08-19T16:32:06;5.10;;;1.80;;
13797;SDS011;6970;51.340;3.240;2022-08-19T16:34:39;6.37;;;1.80;;
13797;SDS011;6970;51.340;3.240;2022-08-19T16:37:13;3.77;;;1.70;;
13797;SDS011;6970;51.340;3.240;2022-08-19T16:39:44;5.20;;;1.70;;
13797;SDS011;6970;51.340;3.240;2022-08-19T16:42:13;3.07;;;1.67;;
13797;SDS011;6970;51.340;3.240;2022-08-19T16:47:12;2.23;;;1.40;;
13797;SDS011;6970;51.340;3.240;2022-08-19T16:54:52;7.10;;;1.80;;
13797;SDS011;6970;51.340;3.240;2022-08-19T16:59:50;4.10;;;1.57;;
13797;SDS011;6970;51.340;3.240;2022-08-19T17:02:18;4.63;;;1.90;;
13797;SDS011;6970;51.340;3.240;2022-08-19T17:04:49;3.83;;;1.83;;
13797;SDS011;6970;51.340;3.240;2022-08-19T17:07:26;3.87;;;2.00;;
13797;SDS011;6970;51.340;3.240;2022-08-19T17:15:03;12.17;;;3.50;;
13797;SDS011;6970;51.340;3.240;2022-08-19T17:17:33;8.57;;;3.13;;
13797;SDS011;6970;51.340;3.240;2022-08-19T17:22:35;5.40;;;2.60;;
13797;SDS011;6970;51.340;3.240;2022-08-19T17:27:45;5.53;;;3.10;;
13797;SDS011;6970;51.340;3.240;2022-08-19T17:35:18;6.93;;;4.27;;
13797;SDS011;6970;51.340;3.240;2022-08-19T17:37:50;6.07;;;2.97;;
13797;SDS011;6970;51.340;3.240;2022-08-19T17:40:19;4.47;;;2.50;;
13797;SDS011;6970;51.340;3.240;2022-08-19T17:42:49;5.67;;;2.60;;
13797;SDS011;6970;51.340;3.240;2022-08-19T17:47:49;6.13;;;2.50;;
13797;SDS011;6970;51.340;3.240;2022-08-19T17:50:16;4.13;;;1.90;;
13797;SDS011;6970;51.340;3.240;2022-08-19T17:52:43;7.40;;;2.23;;
13797;SDS011;6970;51.340;3.240;2022-08-19T17:55:14;3.83;;;1.80;;
13797;SDS011;6970;51.340;3.240;2022-08-19T17:57:44;4.83;;;1.80;;
13797;SDS011;6970;51.340;3.240;2022-08-19T18:00:22;2.50;;;1.70;;
13797;SDS011;6970;51.340;3.240;2022-08-19T18:02:56;4.57;;;1.90;;
13797;SDS011;6970;51.340;3.240;2022-08-19T18:10:32;4.00;;;2.13;;
13797;SDS011;6970;51.340;3.240;2022-08-19T18:13:00;6.93;;;3.33;;
13797;SDS011;6970;51.340;3.240;2022-08-19T18:15:42;7.33;;;2.70;;
13797;SDS011;6970;51.340;3.240;2022-08-19T18:18:09;2.43;;;1.80;;
13797;SDS011;6970;51.340;3.240;2022-08-19T18:20:40;2.80;;;1.10;;
13797;SDS011;6970;51.340;3.240;2022-08-19T18:23:08;1.83;;;1.50;;
13797;SDS011;6970;51.340;3.240;2022-08-19T18:25:55;5.07;;;1.70;;
13797;SDS011;6970;51.340;3.240;2022-08-19T18:28:22;2.97;;;1.50;;
13797;SDS011;6970;51.340;3.240;2022-08-19T18:30:51;6.77;;;1.77;;
13797;SDS011;6970;51.340;3.240;2022-08-19T18:33:18;2.70;;;1.40;;
13797;SDS011;6970;51.340;3.240;2022-08-19T18:35:47;1.93;;;1.60;;
13797;SDS011;6970;51.340;3.240;2022-08-19T18:38:18;3.83;;;1.93;;
13797;SDS011;6970;51.340;3.240;2022-08-19T18:41:05;2.90;;;1.50;;
13797;SDS011;6970;51.340;3.240;2022-08-19T18:43:52;3.03;;;1.93;;
13797;SDS011;6970;51.340;3.240;2022-08-19T18:46:38;4.63;;;1.77;;
13797;SDS011;6970;51.340;3.240;2022-08-19T18:49:25;3.63;;;2.37;;
13797;SDS011;6970;51.340;3.240;2022-08-19T18:51:54;3.53;;;2.10;;
13797;SDS011;6970;51.340;3.240;2022-08-19T18:54:22;5.13;;;2.40;;
13797;SDS011;6970;51.340;3.240;2022-08-19T18:56:50;4.93;;;2.10;;
13797;SDS011;6970;51.340;3.240;2022-08-19T18:59:21;5.57;;;3.20;;
13797;SDS011;6970;51.340;3.240;2022-08-19T19:01:49;4.93;;;1.90;;
13797;SDS011;6970;51.340;3.240;2022-08-19T19:04:22;4.37;;;1.70;;
13797;SDS011;6970;51.340;3.240;2022-08-19T19:06:54;4.67;;;1.93;;
13797;SDS011;6970;51.340;3.240;2022-08-19T19:09:22;5.90;;;2.10;;
13797;SDS011;6970;51.340;3.240;2022-08-19T19:11:51;4.67;;;3.40;;
13797;SDS011;6970;51.340;3.240;2022-08-19T19:14:23;4.00;;;1.37;;
13797;SDS011;6970;51.340;3.240;2022-08-19T19:17:14;3.47;;;1.90;;
13797;SDS011;6970;51.340;3.240;2022-08-19T19:19:41;4.40;;;1.40;;
13797;SDS011;6970;51.340;3.240;2022-08-19T19:22:10;5.30;;;1.47;;
13797;SDS011;6970;51.340;3.240;2022-08-19T19:24:39;4.03;;;1.27;;
13797;SDS011;6970;51.340;3.240;2022-08-19T19:27:10;2.67;;;1.27;;
13797;SDS011;6970;51.340;3.240;2022-08-19T19:29:39;1.17;;;0.93;;
13797;SDS011;6970;51.340;3.240;2022-08-19T19:32:15;1.00;;;0.80;;
13797;SDS011;6970;51.340;3.240;2022-08-19T19:34:43;2.60;;;0.80;;
13797;SDS011;6970;51.340;3.240;2022-08-19T19:37:11;2.30;;;1.10;;
13797;SDS011;6970;51.340;3.240;2022-08-19T19:39:38;6.43;;;1.23;;
13797;SDS011;6970;51.340;3.240;2022-08-19T19:42:12;3.57;;;1.23;;
13797;SDS011;6970;51.340;3.240;2022-08-19T19:44:45;4.43;;;1.70;;
13797;SDS011;6970;51.340;3.240;2022-08-19T19:47:13;3.37;;;1.73;;
13797;SDS011;6970;51.340;3.240;2022-08-19T19:49:44;4.00;;;1.47;;
13797;SDS011;6970;51.340;3.240;2022-08-19T19:52:32;4.93;;;1.90;;
13797;SDS011;6970;51.340;3.240;2022-08-19T19:54:59;6.53;;;1.63;;
13797;SDS011;6970;51.340;3.240;2022-08-19T19:57:27;4.93;;;2.10;;
13797;SDS011;6970;51.340;3.240;2022-08-19T19:59:55;3.17;;;1.77;;
13797;SDS011;6970;51.340;3.240;2022-08-19T20:02:23;5.80;;;1.90;;
13797;SDS011;6970;51.340;3.240;2022-08-19T20:04:51;10.23;;;2.70;;
13797;SDS011;6970;51.340;3.240;2022-08-19T20:07:20;5.67;;;2.27;;
13797;SDS011;6970;51.340;3.240;2022-08-19T20:10:07;9.60;;;2.80;;
13797;SDS011;6970;51.340;3.240;2022-08-19T20:12:34;8.10;;;2.37;;
13797;SDS011;6970;51.340;3.240;2022-08-19T20:15:03;9.13;;;3.23;;
13797;SDS011;6970;51.340;3.240;2022-08-19T20:17:31;8.30;;;2.63;;
13797;SDS011;6970;51.340;3.240;2022-08-19T20:19:58;10.30;;;3.17;;
13797;SDS011;6970;51.340;3.240;2022-08-19T20:22:25;5.30;;;3.43;;
13797;SDS011;6970;51.340;3.240;2022-08-19T20:24:59;9.87;;;2.43;;
13797;SDS011;6970;51.340;3.240;2022-08-19T20:27:26;9.17;;;2.63;;
13797;SDS011;6970;51.340;3.240;2022-08-19T20:30:05;9.37;;;2.97;;
13797;SDS011;6970;51.340;3.240;2022-08-19T20:32:39;6.33;;;2.90;;
13797;SDS011;6970;51.340;3.240;2022-08-19T20:35:09;10.63;;;3.43;;
13797;SDS011;6970;51.340;3.240;2022-08-19T20:37:36;10.10;;;3.30;;
13797;SDS011;6970;51.340;3.240;2022-08-19T20:40:04;11.10;;;3.27;;
13797;SDS011;6970;51.340;3.240;2022-08-19T20:42:35;7.70;;;2.70;;
13797;SDS011;6970;51.340;3.240;2022-08-19T20:45:06;11.93;;;3.20;;